sensor_id;sensor_type;location;lat;lon;timestamp;temperature;humidity
39519;DHT22;25200;53.394;10.414;2022-07-12T00:02:11;17.50;62.10
39519;DHT22;25200;53.394;10.414;2022-07-12T00:04:37;17.40;62.60
39519;DHT22;25200;53.394;10.414;2022-07-12T00:07:03;17.40;62.60
39519;DHT22;25200;53.394;10.414;2022-07-12T00:09:29;17.30;62.80
39519;DHT22;25200;53.394;10.414;2022-07-12T00:11:54;17.30;63.20
39519;DHT22;25200;53.394;10.414;2022-07-12T00:14:21;17.20;63.40
39519;DHT22;25200;53.394;10.414;2022-07-12T00:16:47;17.20;63.50
39519;DHT22;25200;53.394;10.414;2022-07-12T00:19:12;17.10;63.80
39519;DHT22;25200;53.394;10.414;2022-07-12T00:21:38;17.10;63.40
39519;DHT22;25200;53.394;10.414;2022-07-12T00:24:04;17.10;63.50
39519;DHT22;25200;53.394;10.414;2022-07-12T00:26:30;17.10;64.20
39519;DHT22;25200;53.394;10.414;2022-07-12T00:28:55;17.00;63.70
39519;DHT22;25200;53.394;10.414;2022-07-12T00:31:22;17.00;63.80
39519;DHT22;25200;53.394;10.414;2022-07-12T00:33:48;16.90;64.70
39519;DHT22;25200;53.394;10.414;2022-07-12T00:36:14;16.90;64.70
39519;DHT22;25200;53.394;10.414;2022-07-12T00:38:39;16.80;64.50
39519;DHT22;25200;53.394;10.414;2022-07-12T00:41:05;16.80;65.00
39519;DHT22;25200;53.394;10.414;2022-07-12T00:43:31;16.80;64.70
39519;DHT22;25200;53.394;10.414;2022-07-12T00:45:56;16.80;64.80
39519;DHT22;25200;53.394;10.414;2022-07-12T00:48:22;16.80;64.80
39519;DHT22;25200;53.394;10.414;2022-07-12T00:50:48;16.80;64.60
39519;DHT22;25200;53.394;10.414;2022-07-12T00:53:14;16.70;64.40
39519;DHT22;25200;53.394;10.414;2022-07-12T00:55:42;16.70;64.90
39519;DHT22;25200;53.394;10.414;2022-07-12T00:58:07;16.70;65.10
39519;DHT22;25200;53.394;10.414;2022-07-12T01:00:33;16.60;64.60
39519;DHT22;25200;53.394;10.414;2022-07-12T01:03:02;16.60;64.80
39519;DHT22;25200;53.394;10.414;2022-07-12T01:05:28;16.50;64.70
39519;DHT22;25200;53.394;10.414;2022-07-12T01:07:55;16.50;65.20
39519;DHT22;25200;53.394;10.414;2022-07-12T01:10:22;16.50;65.50
39519;DHT22;25200;53.394;10.414;2022-07-12T01:12:48;16.50;65.30
39519;DHT22;25200;53.394;10.414;2022-07-12T01:15:14;16.40;65.40
39519;DHT22;25200;53.394;10.414;2022-07-12T01:17:40;16.40;65.60
39519;DHT22;25200;53.394;10.414;2022-07-12T01:20:06;16.30;65.90
39519;DHT22;25200;53.394;10.414;2022-07-12T01:22:35;16.30;65.70
39519;DHT22;25200;53.394;10.414;2022-07-12T01:25:02;16.30;65.70
39519;DHT22;25200;53.394;10.414;2022-07-12T01:27:30;16.30;65.90
39519;DHT22;25200;53.394;10.414;2022-07-12T01:29:56;16.30;65.90
39519;DHT22;25200;53.394;10.414;2022-07-12T01:32:22;16.20;65.70
39519;DHT22;25200;53.394;10.414;2022-07-12T01:35:02;16.20;65.50
39519;DHT22;25200;53.394;10.414;2022-07-12T01:37:36;16.20;65.90
39519;DHT22;25200;53.394;10.414;2022-07-12T01:40:08;16.10;65.90
39519;DHT22;25200;53.394;10.414;2022-07-12T01:42:34;16.10;66.00
39519;DHT22;25200;53.394;10.414;2022-07-12T01:45:00;16.10;65.80
39519;DHT22;25200;53.394;10.414;2022-07-12T01:47:29;16.10;65.90
39519;DHT22;25200;53.394;10.414;2022-07-12T01:49:55;16.10;65.90
39519;DHT22;25200;53.394;10.414;2022-07-12T01:52:21;16.00;66.00
39519;DHT22;25200;53.394;10.414;2022-07-12T01:54:47;16.00;66.00
39519;DHT22;25200;53.394;10.414;2022-07-12T01:57:13;16.00;65.70
39519;DHT22;25200;53.394;10.414;2022-07-12T01:59:39;15.90;66.10
39519;DHT22;25200;53.394;10.414;2022-07-12T02:02:06;15.90;66.00
39519;DHT22;25200;53.394;10.414;2022-07-12T02:04:33;15.90;66.10
39519;DHT22;25200;53.394;10.414;2022-07-12T02:06:59;15.90;66.10
39519;DHT22;25200;53.394;10.414;2022-07-12T02:09:25;15.80;66.00
39519;DHT22;25200;53.394;10.414;2022-07-12T02:11:51;15.80;66.30
39519;DHT22;25200;53.394;10.414;2022-07-12T02:14:17;15.80;66.10
39519;DHT22;25200;53.394;10.414;2022-07-12T02:16:43;15.80;66.00
39519;DHT22;25200;53.394;10.414;2022-07-12T02:19:10;15.80;66.50
39519;DHT22;25200;53.394;10.414;2022-07-12T02:21:37;15.70;66.30
39519;DHT22;25200;53.394;10.414;2022-07-12T02:24:03;15.70;66.70
39519;DHT22;25200;53.394;10.414;2022-07-12T02:26:29;15.70;66.10
39519;DHT22;25200;53.394;10.414;2022-07-12T02:28:55;15.70;66.50
39519;DHT22;25200;53.394;10.414;2022-07-12T02:31:20;15.60;66.70
39519;DHT22;25200;53.394;10.414;2022-07-12T02:33:46;15.60;66.50
39519;DHT22;25200;53.394;10.414;2022-07-12T02:36:12;15.60;66.50
39519;DHT22;25200;53.394;10.414;2022-07-12T02:38:38;15.50;66.70
39519;DHT22;25200;53.394;10.414;2022-07-12T02:41:03;15.50;66.20
39519;DHT22;25200;53.394;10.414;2022-07-12T02:43:30;15.50;66.70
39519;DHT22;25200;53.394;10.414;2022-07-12T02:46:04;15.50;66.70
39519;DHT22;25200;53.394;10.414;2022-07-12T02:48:30;15.50;66.70
39519;DHT22;25200;53.394;10.414;2022-07-12T02:50:55;15.50;66.70
39519;DHT22;25200;53.394;10.414;2022-07-12T02:53:21;15.40;66.70
39519;DHT22;25200;53.394;10.414;2022-07-12T02:55:47;15.40;66.50
39519;DHT22;25200;53.394;10.414;2022-07-12T02:58:14;15.40;66.80
39519;DHT22;25200;53.394;10.414;2022-07-12T03:00:40;15.40;66.70
39519;DHT22;25200;53.394;10.414;2022-07-12T03:03:06;15.30;66.70
39519;DHT22;25200;53.394;10.414;2022-07-12T03:05:34;15.30;66.50
39519;DHT22;25200;53.394;10.414;2022-07-12T03:08:01;15.30;66.80
39519;DHT22;25200;53.394;10.414;2022-07-12T03:10:27;15.30;66.90
39519;DHT22;25200;53.394;10.414;2022-07-12T03:12:53;15.30;66.80
39519;DHT22;25200;53.394;10.414;2022-07-12T03:15:19;15.30;67.10
39519;DHT22;25200;53.394;10.414;2022-07-12T03:17:44;15.30;67.00
39519;DHT22;25200;53.394;10.414;2022-07-12T03:20:11;15.30;67.00
39519;DHT22;25200;53.394;10.414;2022-07-12T03:22:40;15.30;66.70
39519;DHT22;25200;53.394;10.414;2022-07-12T03:25:06;15.20;66.70
39519;DHT22;25200;53.394;10.414;2022-07-12T03:27:33;15.20;67.00
39519;DHT22;25200;53.394;10.414;2022-07-12T03:29:59;15.20;67.10
39519;DHT22;25200;53.394;10.414;2022-07-12T03:32:25;15.20;66.80
39519;DHT22;25200;53.394;10.414;2022-07-12T03:34:51;15.20;67.50
39519;DHT22;25200;53.394;10.414;2022-07-12T03:37:16;15.20;67.00
39519;DHT22;25200;53.394;10.414;2022-07-12T03:39:42;15.20;66.50
39519;DHT22;25200;53.394;10.414;2022-07-12T03:42:08;15.20;67.40
39519;DHT22;25200;53.394;10.414;2022-07-12T03:44:33;15.20;66.80
39519;DHT22;25200;53.394;10.414;2022-07-12T03:47:00;15.20;67.40
39519;DHT22;25200;53.394;10.414;2022-07-12T03:49:25;15.20;67.20
39519;DHT22;25200;53.394;10.414;2022-07-12T03:51:51;15.20;66.90
39519;DHT22;25200;53.394;10.414;2022-07-12T03:54:17;15.20;67.30
39519;DHT22;25200;53.394;10.414;2022-07-12T03:56:42;15.20;67.10
39519;DHT22;25200;53.394;10.414;2022-07-12T03:59:27;15.20;67.70
39519;DHT22;25200;53.394;10.414;2022-07-12T04:01:52;15.20;67.00
39519;DHT22;25200;53.394;10.414;2022-07-12T04:04:18;15.20;67.20
39519;DHT22;25200;53.394;10.414;2022-07-12T04:06:44;15.20;66.90
39519;DHT22;25200;53.394;10.414;2022-07-12T04:09:09;15.30;67.40
39519;DHT22;25200;53.394;10.414;2022-07-12T04:11:35;15.20;66.50
39519;DHT22;25200;53.394;10.414;2022-07-12T04:14:01;15.30;66.10
39519;DHT22;25200;53.394;10.414;2022-07-12T04:16:26;15.30;67.30
39519;DHT22;25200;53.394;10.414;2022-07-12T04:18:53;15.30;65.70
39519;DHT22;25200;53.394;10.414;2022-07-12T04:21:19;15.30;65.70
39519;DHT22;25200;53.394;10.414;2022-07-12T04:23:45;15.30;64.60
39519;DHT22;25200;53.394;10.414;2022-07-12T04:26:10;15.40;65.20
39519;DHT22;25200;53.394;10.414;2022-07-12T04:28:36;15.40;64.60
39519;DHT22;25200;53.394;10.414;2022-07-12T04:31:02;15.50;64.70
39519;DHT22;25200;53.394;10.414;2022-07-12T04:33:28;15.50;64.30
39519;DHT22;25200;53.394;10.414;2022-07-12T04:35:54;15.60;64.60
39519;DHT22;25200;53.394;10.414;2022-07-12T04:38:19;15.60;64.70
39519;DHT22;25200;53.394;10.414;2022-07-12T04:40:45;15.60;64.60
39519;DHT22;25200;53.394;10.414;2022-07-12T04:43:11;15.60;64.30
39519;DHT22;25200;53.394;10.414;2022-07-12T04:45:37;15.60;64.30
39519;DHT22;25200;53.394;10.414;2022-07-12T04:48:03;15.60;64.20
39519;DHT22;25200;53.394;10.414;2022-07-12T04:50:28;15.60;63.90
39519;DHT22;25200;53.394;10.414;2022-07-12T04:52:54;15.60;63.70
39519;DHT22;25200;53.394;10.414;2022-07-12T04:55:20;15.70;63.50
39519;DHT22;25200;53.394;10.414;2022-07-12T04:57:45;15.70;63.50
39519;DHT22;25200;53.394;10.414;2022-07-12T05:00:11;15.70;63.40
39519;DHT22;25200;53.394;10.414;2022-07-12T05:02:37;15.80;63.40
39519;DHT22;25200;53.394;10.414;2022-07-12T05:05:03;15.80;63.30
39519;DHT22;25200;53.394;10.414;2022-07-12T05:07:29;15.80;63.30
39519;DHT22;25200;53.394;10.414;2022-07-12T05:09:54;15.80;63.30
39519;DHT22;25200;53.394;10.414;2022-07-12T05:12:20;15.80;63.20
39519;DHT22;25200;53.394;10.414;2022-07-12T05:14:46;15.80;63.60
39519;DHT22;25200;53.394;10.414;2022-07-12T05:17:12;15.80;63.70
39519;DHT22;25200;53.394;10.414;2022-07-12T05:19:38;15.80;63.30
39519;DHT22;25200;53.394;10.414;2022-07-12T05:22:04;15.80;63.60
39519;DHT22;25200;53.394;10.414;2022-07-12T05:24:29;15.80;63.40
39519;DHT22;25200;53.394;10.414;2022-07-12T05:26:55;15.80;63.50
39519;DHT22;25200;53.394;10.414;2022-07-12T05:29:21;15.80;63.60
39519;DHT22;25200;53.394;10.414;2022-07-12T05:31:47;15.80;64.30
39519;DHT22;25200;53.394;10.414;2022-07-12T05:34:13;15.80;64.10
39519;DHT22;25200;53.394;10.414;2022-07-12T05:36:39;15.80;63.60
39519;DHT22;25200;53.394;10.414;2022-07-12T05:39:05;15.80;63.60
39519;DHT22;25200;53.394;10.414;2022-07-12T05:41:31;15.80;63.80
39519;DHT22;25200;53.394;10.414;2022-07-12T05:43:56;15.80;63.40
39519;DHT22;25200;53.394;10.414;2022-07-12T05:46:22;15.90;63.30
39519;DHT22;25200;53.394;10.414;2022-07-12T05:48:47;15.90;63.30
39519;DHT22;25200;53.394;10.414;2022-07-12T05:51:14;16.00;63.10
39519;DHT22;25200;53.394;10.414;2022-07-12T05:53:58;16.00;63.10
39519;DHT22;25200;53.394;10.414;2022-07-12T05:56:24;16.10;63.20
39519;DHT22;25200;53.394;10.414;2022-07-12T05:58:50;16.10;63.20
39519;DHT22;25200;53.394;10.414;2022-07-12T06:01:16;16.20;63.20
39519;DHT22;25200;53.394;10.414;2022-07-12T06:03:42;16.30;63.00
39519;DHT22;25200;53.394;10.414;2022-07-12T06:06:08;16.40;63.20
39519;DHT22;25200;53.394;10.414;2022-07-12T06:08:33;16.50;63.20
39519;DHT22;25200;53.394;10.414;2022-07-12T06:10:59;16.50;63.30
39519;DHT22;25200;53.394;10.414;2022-07-12T06:13:25;16.60;63.30
39519;DHT22;25200;53.394;10.414;2022-07-12T06:15:50;16.60;63.50
39519;DHT22;25200;53.394;10.414;2022-07-12T06:18:16;16.70;63.20
39519;DHT22;25200;53.394;10.414;2022-07-12T06:20:42;16.70;63.30
39519;DHT22;25200;53.394;10.414;2022-07-12T06:23:07;16.80;63.40
39519;DHT22;25200;53.394;10.414;2022-07-12T06:25:33;16.90;63.00
39519;DHT22;25200;53.394;10.414;2022-07-12T06:28:02;16.90;62.70
39519;DHT22;25200;53.394;10.414;2022-07-12T06:30:29;17.00;62.70
39519;DHT22;25200;53.394;10.414;2022-07-12T06:32:55;17.10;62.70
39519;DHT22;25200;53.394;10.414;2022-07-12T06:35:21;17.30;63.00
39519;DHT22;25200;53.394;10.414;2022-07-12T06:37:46;17.40;62.90
39519;DHT22;25200;53.394;10.414;2022-07-12T06:40:12;17.60;62.60
39519;DHT22;25200;53.394;10.414;2022-07-12T06:42:38;17.70;63.10
39519;DHT22;25200;53.394;10.414;2022-07-12T06:45:04;17.80;62.60
39519;DHT22;25200;53.394;10.414;2022-07-12T06:47:30;18.00;62.60
39519;DHT22;25200;53.394;10.414;2022-07-12T06:49:56;18.10;62.40
39519;DHT22;25200;53.394;10.414;2022-07-12T06:52:22;18.20;62.20
39519;DHT22;25200;53.394;10.414;2022-07-12T06:54:47;18.30;62.40
39519;DHT22;25200;53.394;10.414;2022-07-12T06:57:13;18.40;62.50
39519;DHT22;25200;53.394;10.414;2022-07-12T06:59:39;18.50;62.40
39519;DHT22;25200;53.394;10.414;2022-07-12T07:02:04;18.60;62.20
39519;DHT22;25200;53.394;10.414;2022-07-12T07:04:30;18.70;62.00
39519;DHT22;25200;53.394;10.414;2022-07-12T07:06:56;18.80;62.20
39519;DHT22;25200;53.394;10.414;2022-07-12T07:09:22;18.80;62.10
39519;DHT22;25200;53.394;10.414;2022-07-12T07:11:47;18.90;62.00
39519;DHT22;25200;53.394;10.414;2022-07-12T07:14:13;18.90;62.00
39519;DHT22;25200;53.394;10.414;2022-07-12T07:16:39;19.00;62.30
39519;DHT22;25200;53.394;10.414;2022-07-12T07:19:04;19.10;62.20
39519;DHT22;25200;53.394;10.414;2022-07-12T07:21:31;19.10;62.30
39519;DHT22;25200;53.394;10.414;2022-07-12T07:23:57;19.20;62.30
39519;DHT22;25200;53.394;10.414;2022-07-12T07:26:23;19.30;62.00
39519;DHT22;25200;53.394;10.414;2022-07-12T07:28:49;19.50;62.80
39519;DHT22;25200;53.394;10.414;2022-07-12T07:31:37;19.60;61.90
39519;DHT22;25200;53.394;10.414;2022-07-12T07:34:03;19.70;61.70
39519;DHT22;25200;53.394;10.414;2022-07-12T07:36:29;19.80;61.70
39519;DHT22;25200;53.394;10.414;2022-07-12T07:38:55;19.80;62.30
39519;DHT22;25200;53.394;10.414;2022-07-12T07:41:20;19.90;61.50
39519;DHT22;25200;53.394;10.414;2022-07-12T07:43:46;19.90;61.50
39519;DHT22;25200;53.394;10.414;2022-07-12T07:46:12;20.00;61.40
39519;DHT22;25200;53.394;10.414;2022-07-12T07:48:38;20.00;61.50
39519;DHT22;25200;53.394;10.414;2022-07-12T07:51:03;20.10;61.40
39519;DHT22;25200;53.394;10.414;2022-07-12T07:53:29;20.10;61.20
39519;DHT22;25200;53.394;10.414;2022-07-12T07:55:55;20.20;61.30
39519;DHT22;25200;53.394;10.414;2022-07-12T07:58:21;20.20;61.10
39519;DHT22;25200;53.394;10.414;2022-07-12T08:00:49;20.30;61.20
39519;DHT22;25200;53.394;10.414;2022-07-12T08:03:15;20.40;61.10
39519;DHT22;25200;53.394;10.414;2022-07-12T08:05:40;20.50;61.90
39519;DHT22;25200;53.394;10.414;2022-07-12T08:08:06;20.50;61.30
39519;DHT22;25200;53.394;10.414;2022-07-12T08:10:32;20.60;61.10
39519;DHT22;25200;53.394;10.414;2022-07-12T08:12:58;20.60;60.90
39519;DHT22;25200;53.394;10.414;2022-07-12T08:15:25;20.70;60.90
39519;DHT22;25200;53.394;10.414;2022-07-12T08:17:51;20.80;60.70
39519;DHT22;25200;53.394;10.414;2022-07-12T08:20:17;20.80;60.60
39519;DHT22;25200;53.394;10.414;2022-07-12T08:22:45;20.80;60.50
39519;DHT22;25200;53.394;10.414;2022-07-12T08:25:12;20.90;60.40
39519;DHT22;25200;53.394;10.414;2022-07-12T08:27:37;20.90;60.50
39519;DHT22;25200;53.394;10.414;2022-07-12T08:30:04;20.90;60.80
39519;DHT22;25200;53.394;10.414;2022-07-12T08:32:29;21.00;60.70
39519;DHT22;25200;53.394;10.414;2022-07-12T08:34:55;21.10;60.90
39519;DHT22;25200;53.394;10.414;2022-07-12T08:37:21;21.20;60.90
39519;DHT22;25200;53.394;10.414;2022-07-12T08:39:47;21.30;60.70
39519;DHT22;25200;53.394;10.414;2022-07-12T08:42:15;21.40;60.50
39519;DHT22;25200;53.394;10.414;2022-07-12T08:44:42;21.60;60.50
39519;DHT22;25200;53.394;10.414;2022-07-12T08:47:08;21.60;60.30
39519;DHT22;25200;53.394;10.414;2022-07-12T08:49:33;21.70;60.30
39519;DHT22;25200;53.394;10.414;2022-07-12T08:52:00;21.80;60.30
39519;DHT22;25200;53.394;10.414;2022-07-12T08:54:42;22.00;60.40
39519;DHT22;25200;53.394;10.414;2022-07-12T08:57:08;22.10;60.50
39519;DHT22;25200;53.394;10.414;2022-07-12T08:59:34;22.20;60.10
39519;DHT22;25200;53.394;10.414;2022-07-12T09:01:59;22.30;59.90
39519;DHT22;25200;53.394;10.414;2022-07-12T09:04:26;22.30;59.80
39519;DHT22;25200;53.394;10.414;2022-07-12T09:06:55;22.50;60.00
39519;DHT22;25200;53.394;10.414;2022-07-12T09:09:28;22.70;60.00
39519;DHT22;25200;53.394;10.414;2022-07-12T09:11:54;22.90;59.80
39519;DHT22;25200;53.394;10.414;2022-07-12T09:14:20;23.10;59.60
39519;DHT22;25200;53.394;10.414;2022-07-12T09:16:59;23.20;59.60
39519;DHT22;25200;53.394;10.414;2022-07-12T09:19:25;23.30;59.40
39519;DHT22;25200;53.394;10.414;2022-07-12T09:21:54;23.40;59.20
39519;DHT22;25200;53.394;10.414;2022-07-12T09:24:24;23.60;59.30
39519;DHT22;25200;53.394;10.414;2022-07-12T09:26:53;23.70;59.20
39519;DHT22;25200;53.394;10.414;2022-07-12T09:29:20;23.80;59.00
39519;DHT22;25200;53.394;10.414;2022-07-12T09:31:51;23.90;58.70
39519;DHT22;25200;53.394;10.414;2022-07-12T09:34:36;24.00;58.60
39519;DHT22;25200;53.394;10.414;2022-07-12T09:37:21;24.00;58.40
39519;DHT22;25200;53.394;10.414;2022-07-12T09:39:47;24.10;58.70
39519;DHT22;25200;53.394;10.414;2022-07-12T09:42:13;24.20;58.40
39519;DHT22;25200;53.394;10.414;2022-07-12T09:44:40;24.30;58.00
39519;DHT22;25200;53.394;10.414;2022-07-12T09:47:09;24.40;58.20
39519;DHT22;25200;53.394;10.414;2022-07-12T09:49:39;24.40;58.10
39519;DHT22;25200;53.394;10.414;2022-07-12T09:52:06;24.40;57.80
39519;DHT22;25200;53.394;10.414;2022-07-12T09:54:38;24.40;57.90
39519;DHT22;25200;53.394;10.414;2022-07-12T09:57:13;24.50;57.70
39519;DHT22;25200;53.394;10.414;2022-07-12T09:59:43;24.50;57.90
39519;DHT22;25200;53.394;10.414;2022-07-12T10:02:10;24.50;57.70
39519;DHT22;25200;53.394;10.414;2022-07-12T10:04:41;24.60;58.10
39519;DHT22;25200;53.394;10.414;2022-07-12T10:07:08;24.70;57.80
39519;DHT22;25200;53.394;10.414;2022-07-12T10:09:35;24.90;57.80
39519;DHT22;25200;53.394;10.414;2022-07-12T10:12:02;25.00;57.80
39519;DHT22;25200;53.394;10.414;2022-07-12T10:14:28;25.10;57.90
39519;DHT22;25200;53.394;10.414;2022-07-12T10:16:55;25.30;57.70
39519;DHT22;25200;53.394;10.414;2022-07-12T10:21:52;26.00;57.40
39519;DHT22;25200;53.394;10.414;2022-07-12T10:24:48;26.20;57.70
39519;DHT22;25200;53.394;10.414;2022-07-12T10:32:26;26.60;56.30
39519;DHT22;25200;53.394;10.414;2022-07-12T10:35:03;26.50;56.00
39519;DHT22;25200;53.394;10.414;2022-07-12T10:37:31;26.50;56.30
39519;DHT22;25200;53.394;10.414;2022-07-12T10:40:12;26.70;56.60
39519;DHT22;25200;53.394;10.414;2022-07-12T10:42:39;26.90;56.90
39519;DHT22;25200;53.394;10.414;2022-07-12T10:45:15;27.10;56.70
39519;DHT22;25200;53.394;10.414;2022-07-12T10:48:00;27.20;56.40
39519;DHT22;25200;53.394;10.414;2022-07-12T10:58:44;28.60;55.50
39519;DHT22;25200;53.394;10.414;2022-07-12T11:01:14;28.70;55.50
39519;DHT22;25200;53.394;10.414;2022-07-12T11:06:10;29.10;55.40
39519;DHT22;25200;53.394;10.414;2022-07-12T11:11:33;29.40;54.70
39519;DHT22;25200;53.394;10.414;2022-07-12T11:14:00;29.60;54.80
39519;DHT22;25200;53.394;10.414;2022-07-12T11:16:27;29.80;55.00
39519;DHT22;25200;53.394;10.414;2022-07-12T11:18:54;30.00;54.40
39519;DHT22;25200;53.394;10.414;2022-07-12T11:21:22;30.20;54.20
39519;DHT22;25200;53.394;10.414;2022-07-12T11:23:48;30.20;54.00
39519;DHT22;25200;53.394;10.414;2022-07-12T11:26:14;30.30;53.80
39519;DHT22;25200;53.394;10.414;2022-07-12T11:28:42;30.30;53.20
39519;DHT22;25200;53.394;10.414;2022-07-12T11:31:13;30.40;54.30
39519;DHT22;25200;53.394;10.414;2022-07-12T11:33:41;30.50;53.20
39519;DHT22;25200;53.394;10.414;2022-07-12T11:36:09;30.60;54.10
39519;DHT22;25200;53.394;10.414;2022-07-12T11:38:37;30.60;53.60
39519;DHT22;25200;53.394;10.414;2022-07-12T11:41:06;30.50;53.90
39519;DHT22;25200;53.394;10.414;2022-07-12T11:43:34;30.60;54.10
39519;DHT22;25200;53.394;10.414;2022-07-12T11:46:00;30.80;54.00
39519;DHT22;25200;53.394;10.414;2022-07-12T11:48:29;31.00;54.10
39519;DHT22;25200;53.394;10.414;2022-07-12T11:51:00;31.20;54.10
39519;DHT22;25200;53.394;10.414;2022-07-12T11:53:28;31.40;53.00
39519;DHT22;25200;53.394;10.414;2022-07-12T11:55:56;31.40;52.80
39519;DHT22;25200;53.394;10.414;2022-07-12T11:58:23;31.70;54.20
39519;DHT22;25200;53.394;10.414;2022-07-12T12:00:50;31.70;52.50
39519;DHT22;25200;53.394;10.414;2022-07-12T12:03:17;31.90;52.60
39519;DHT22;25200;53.394;10.414;2022-07-12T12:05:45;32.00;52.20
39519;DHT22;25200;53.394;10.414;2022-07-12T12:08:12;32.00;52.10
39519;DHT22;25200;53.394;10.414;2022-07-12T12:10:42;31.90;52.60
39519;DHT22;25200;53.394;10.414;2022-07-12T12:13:15;32.00;52.70
39519;DHT22;25200;53.394;10.414;2022-07-12T12:15:52;32.10;52.50
39519;DHT22;25200;53.394;10.414;2022-07-12T12:18:40;32.20;52.80
39519;DHT22;25200;53.394;10.414;2022-07-12T12:21:08;32.40;53.20
39519;DHT22;25200;53.394;10.414;2022-07-12T12:23:35;32.60;52.00
39519;DHT22;25200;53.394;10.414;2022-07-12T12:26:20;32.70;52.70
39519;DHT22;25200;53.394;10.414;2022-07-12T12:28:53;32.90;53.00
39519;DHT22;25200;53.394;10.414;2022-07-12T12:31:21;32.90;52.90
39519;DHT22;25200;53.394;10.414;2022-07-12T12:38:45;33.10;52.00
39519;DHT22;25200;53.394;10.414;2022-07-12T12:41:11;33.10;52.60
39519;DHT22;25200;53.394;10.414;2022-07-12T12:43:37;33.20;51.10
39519;DHT22;25200;53.394;10.414;2022-07-12T12:46:03;33.20;50.70
39519;DHT22;25200;53.394;10.414;2022-07-12T12:48:31;33.20;51.30
39519;DHT22;25200;53.394;10.414;2022-07-12T12:51:10;33.30;51.40
39519;DHT22;25200;53.394;10.414;2022-07-12T12:53:37;33.50;52.60
39519;DHT22;25200;53.394;10.414;2022-07-12T12:56:14;33.80;52.30
39519;DHT22;25200;53.394;10.414;2022-07-12T12:58:40;33.90;52.60
39519;DHT22;25200;53.394;10.414;2022-07-12T13:01:06;34.20;52.40
39519;DHT22;25200;53.394;10.414;2022-07-12T13:03:33;34.30;51.30
39519;DHT22;25200;53.394;10.414;2022-07-12T13:05:59;34.40;51.20
39519;DHT22;25200;53.394;10.414;2022-07-12T13:08:26;34.50;51.60
39519;DHT22;25200;53.394;10.414;2022-07-12T13:10:53;34.50;51.10
39519;DHT22;25200;53.394;10.414;2022-07-12T13:13:38;34.50;50.60
39519;DHT22;25200;53.394;10.414;2022-07-12T13:16:04;34.50;51.60
39519;DHT22;25200;53.394;10.414;2022-07-12T13:18:30;34.50;50.90
39519;DHT22;25200;53.394;10.414;2022-07-12T13:20:56;34.50;49.70
39519;DHT22;25200;53.394;10.414;2022-07-12T13:23:21;34.40;49.80
39519;DHT22;25200;53.394;10.414;2022-07-12T13:25:47;34.40;51.40
39519;DHT22;25200;53.394;10.414;2022-07-12T13:28:13;34.40;50.40
39519;DHT22;25200;53.394;10.414;2022-07-12T13:30:39;34.30;50.50
39519;DHT22;25200;53.394;10.414;2022-07-12T13:33:05;34.40;51.90
39519;DHT22;25200;53.394;10.414;2022-07-12T13:35:30;34.40;50.00
39519;DHT22;25200;53.394;10.414;2022-07-12T13:37:56;34.50;51.20
39519;DHT22;25200;53.394;10.414;2022-07-12T13:40:22;34.60;50.60
39519;DHT22;25200;53.394;10.414;2022-07-12T13:42:50;34.70;50.60
39519;DHT22;25200;53.394;10.414;2022-07-12T13:45:24;34.80;50.80
39519;DHT22;25200;53.394;10.414;2022-07-12T13:47:51;34.90;51.80
39519;DHT22;25200;53.394;10.414;2022-07-12T13:50:19;35.00;50.10
39519;DHT22;25200;53.394;10.414;2022-07-12T13:52:46;35.00;51.60
39519;DHT22;25200;53.394;10.414;2022-07-12T13:55:14;35.10;51.50
39519;DHT22;25200;53.394;10.414;2022-07-12T13:57:40;35.10;51.30
39519;DHT22;25200;53.394;10.414;2022-07-12T14:00:09;35.20;51.20
39519;DHT22;25200;53.394;10.414;2022-07-12T14:02:36;35.30;51.90
39519;DHT22;25200;53.394;10.414;2022-07-12T14:05:03;35.40;51.00
39519;DHT22;25200;53.394;10.414;2022-07-12T14:07:30;35.40;51.70
39519;DHT22;25200;53.394;10.414;2022-07-12T14:09:56;35.40;52.10
39519;DHT22;25200;53.394;10.414;2022-07-12T14:12:22;35.40;52.30
39519;DHT22;25200;53.394;10.414;2022-07-12T14:14:47;35.40;51.90
39519;DHT22;25200;53.394;10.414;2022-07-12T14:17:32;35.30;51.00
39519;DHT22;25200;53.394;10.414;2022-07-12T14:19:59;35.20;50.90
39519;DHT22;25200;53.394;10.414;2022-07-12T14:22:25;35.00;50.10
39519;DHT22;25200;53.394;10.414;2022-07-12T14:24:51;34.80;49.80
39519;DHT22;25200;53.394;10.414;2022-07-12T14:27:16;34.60;49.20
39519;DHT22;25200;53.394;10.414;2022-07-12T14:29:42;34.40;48.60
39519;DHT22;25200;53.394;10.414;2022-07-12T14:32:08;34.30;50.00
39519;DHT22;25200;53.394;10.414;2022-07-12T14:34:34;34.20;49.60
39519;DHT22;25200;53.394;10.414;2022-07-12T14:36:59;34.10;49.50
39519;DHT22;25200;53.394;10.414;2022-07-12T14:39:26;34.10;50.90
39519;DHT22;25200;53.394;10.414;2022-07-12T14:41:52;34.00;49.50
39519;DHT22;25200;53.394;10.414;2022-07-12T14:44:18;34.00;50.00
39519;DHT22;25200;53.394;10.414;2022-07-12T14:46:44;33.90;50.20
39519;DHT22;25200;53.394;10.414;2022-07-12T14:49:10;34.00;50.10
39519;DHT22;25200;53.394;10.414;2022-07-12T14:51:36;33.90;50.00
39519;DHT22;25200;53.394;10.414;2022-07-12T14:54:02;33.90;49.50
39519;DHT22;25200;53.394;10.414;2022-07-12T14:56:27;33.90;48.90
39519;DHT22;25200;53.394;10.414;2022-07-12T14:58:53;33.90;49.10
39519;DHT22;25200;53.394;10.414;2022-07-12T15:01:19;34.10;50.40
39519;DHT22;25200;53.394;10.414;2022-07-12T15:03:44;34.20;50.00
39519;DHT22;25200;53.394;10.414;2022-07-12T15:06:10;34.20;49.50
39519;DHT22;25200;53.394;10.414;2022-07-12T15:08:36;34.10;49.10
39519;DHT22;25200;53.394;10.414;2022-07-12T15:11:02;34.00;49.10
39519;DHT22;25200;53.394;10.414;2022-07-12T15:13:30;33.60;48.30
39519;DHT22;25200;53.394;10.414;2022-07-12T15:15:56;33.30;48.20
39519;DHT22;25200;53.394;10.414;2022-07-12T15:18:22;33.00;48.60
39519;DHT22;25200;53.394;10.414;2022-07-12T15:20:49;32.70;48.90
39519;DHT22;25200;53.394;10.414;2022-07-12T15:23:15;32.50;49.20
39519;DHT22;25200;53.394;10.414;2022-07-12T15:25:41;32.20;48.80
39519;DHT22;25200;53.394;10.414;2022-07-12T15:28:07;32.10;49.10
39519;DHT22;25200;53.394;10.414;2022-07-12T15:30:33;31.80;49.30
39519;DHT22;25200;53.394;10.414;2022-07-12T15:32:59;31.60;49.10
39519;DHT22;25200;53.394;10.414;2022-07-12T15:35:25;31.50;49.40
39519;DHT22;25200;53.394;10.414;2022-07-12T15:37:51;31.30;49.40
39519;DHT22;25200;53.394;10.414;2022-07-12T15:40:17;31.10;49.30
39519;DHT22;25200;53.394;10.414;2022-07-12T15:42:43;30.90;49.80